createdAt,value
2023-03-27T00:01:04.368Z,1
2023-03-27T00:02:14.130Z,0.9
2023-03-27T00:03:21.757Z,0.9
2023-03-27T00:04:29.347Z,0.9
2023-03-27T00:05:39.009Z,0.7
2023-03-27T00:06:47.685Z,0.9
2023-03-27T00:07:57.350Z,0.9
2023-03-27T00:09:06.999Z,0.8
2023-03-27T00:10:15.653Z,0.9
2023-03-27T00:11:24.365Z,1.1
2023-03-27T00:12:32.015Z,0.9
2023-03-27T00:13:42.652Z,1
2023-03-27T00:14:52.324Z,0.8
2023-03-27T00:16:00.971Z,0.7
2023-03-27T00:17:09.670Z,0.8
2023-03-27T00:18:18.332Z,0.8
2023-03-27T00:19:25.967Z,0.8
2023-03-27T00:20:34.625Z,0.8
2023-03-27T00:21:44.331Z,0.7
2023-03-27T00:22:51.988Z,0.5
2023-03-27T00:24:01.640Z,1.1
2023-03-27T00:25:11.325Z,0.8
2023-03-27T00:26:19.993Z,0.6
2023-03-27T00:27:29.699Z,0.5
2023-03-27T00:28:37.366Z,0.6
2023-03-27T00:29:47.029Z,0.8
2023-03-27T00:30:56.985Z,1.8
2023-03-27T00:32:04.398Z,0.4
2023-03-27T00:33:14.059Z,0.4
2023-03-27T00:34:23.850Z,1.3
2023-03-27T00:35:32.539Z,0.8
2023-03-27T00:36:42.186Z,0.3
2023-03-27T00:37:49.824Z,1.1
2023-03-27T00:38:58.496Z,0.3
2023-03-27T00:40:08.178Z,0.3
2023-03-27T00:41:16.847Z,0.5
2023-03-27T00:42:26.508Z,0.3
2023-03-27T00:43:36.182Z,0.4
2023-03-27T00:44:43.813Z,0.3
2023-03-27T00:45:53.497Z,0.3
2023-03-27T00:47:03.222Z,0.4
2023-03-27T00:48:11.907Z,0.3
2023-03-27T00:49:21.568Z,0.5
2023-03-27T00:50:31.295Z,0.4
2023-03-27T00:51:40.943Z,0.4
2023-03-27T00:52:50.622Z,0.4
2023-03-27T00:53:59.273Z,1.4
2023-03-27T00:55:07.926Z,1.1
2023-03-27T00:56:16.713Z,0.2
2023-03-27T00:57:26.277Z,0.3
2023-03-27T00:58:35.927Z,0.3
2023-03-27T00:59:43.584Z,0.3
2023-03-27T01:00:53.264Z,0.4
2023-03-27T01:02:02.071Z,0.4
2023-03-27T01:03:10.613Z,0.3
2023-03-27T01:04:20.219Z,0.2
2023-03-27T01:05:28.873Z,0.2
2023-03-27T01:06:37.574Z,0.3
2023-03-27T01:07:59.912Z,0.3
2023-03-27T01:08:57.871Z,0.2
2023-03-27T01:10:07.553Z,0.3
2023-03-27T01:11:16.176Z,0.4
2023-03-27T01:12:25.872Z,0.3
2023-03-27T01:13:35.526Z,0.2
2023-03-27T01:14:46.173Z,0.3
2023-03-27T01:15:54.920Z,0.3
2023-03-27T01:17:04.525Z,0.2
2023-03-27T01:18:13.204Z,0.3
2023-03-27T01:19:22.881Z,0.3
2023-03-27T01:20:32.538Z,0.5
2023-03-27T01:21:41.201Z,0.3
2023-03-27T01:22:50.840Z,0.3
2023-03-27T01:24:00.936Z,0.3
2023-03-27T01:25:10.145Z,0.2
2023-03-27T01:26:35.379Z,0.3
2023-03-27T01:27:30.480Z,0.3
2023-03-27T01:28:40.174Z,0.3
2023-03-27T01:29:48.852Z,0.4
2023-03-27T01:30:57.625Z,0.4
2023-03-27T01:32:07.173Z,0.3
2023-03-27T01:33:16.879Z,0.4
2023-03-27T01:34:25.558Z,0.3
2023-03-27T01:35:35.216Z,1.3
2023-03-27T01:36:44.882Z,2.1
2023-03-27T01:37:54.571Z,2.1
2023-03-27T01:39:04.215Z,1.8
2023-03-27T01:40:11.872Z,2.1
2023-03-27T01:41:21.518Z,2.1
2023-03-27T01:42:31.179Z,1.9
2023-03-27T01:43:39.870Z,2.2
2023-03-27T01:44:49.517Z,2.4
2023-03-27T01:45:57.166Z,2.6
2023-03-27T01:47:06.843Z,2.5
2023-03-27T01:48:16.516Z,2.9
2023-03-27T01:49:24.194Z,3
2023-03-27T01:50:33.824Z,2.5
2023-03-27T01:51:43.479Z,2.1
2023-03-27T01:52:53.197Z,2.2
2023-03-27T01:54:02.839Z,1.8
2023-03-27T01:55:10.517Z,1.3
2023-03-27T01:56:20.173Z,1.2
2023-03-27T01:57:28.875Z,0.9
2023-03-27T01:58:37.510Z,0.7
2023-03-27T01:59:47.158Z,0.8
2023-03-27T02:00:56.835Z,0.8
2023-03-27T02:02:06.488Z,1.5
2023-03-27T02:03:16.186Z,1.5
2023-03-27T02:04:24.877Z,1.5
2023-03-27T02:05:34.589Z,1
2023-03-27T02:06:43.290Z,0.7
2023-03-27T02:07:50.927Z,0.9
2023-03-27T02:09:00.631Z,0.9
2023-03-27T02:10:09.267Z,0.7
2023-03-27T02:11:17.913Z,0.9
2023-03-27T02:12:27.591Z,1
2023-03-27T02:13:35.282Z,0.9
2023-03-27T02:14:44.937Z,0.8
2023-03-27T02:15:53.635Z,1.3
2023-03-27T02:17:02.275Z,0.9
2023-03-27T02:18:10.986Z,1.2
2023-03-27T02:19:20.604Z,0.9
2023-03-27T02:20:28.270Z,0.8
2023-03-27T02:21:37.970Z,1.6
2023-03-27T02:22:46.632Z,1.7
2023-03-27T02:23:54.353Z,1.5
2023-03-27T02:25:04.042Z,1.7
2023-03-27T02:26:12.701Z,1.7
2023-03-27T02:27:21.390Z,1.6
2023-03-27T02:28:31.085Z,1.8
2023-03-27T02:29:40.767Z,1.6
2023-03-27T02:31:05.934Z,1.8
2023-03-27T02:32:00.108Z,1.7
2023-03-27T02:33:08.772Z,1.4
2023-03-27T02:34:19.421Z,1.7
2023-03-27T02:35:28.104Z,1.6
2023-03-27T02:36:35.718Z,1.5
2023-03-27T02:37:45.388Z,1.3
2023-03-27T02:38:54.071Z,1.3
2023-03-27T02:40:03.718Z,1.6
2023-03-27T02:41:11.419Z,1.3
2023-03-27T02:42:19.046Z,1.4
2023-03-27T02:43:28.759Z,1.6
2023-03-27T02:44:46.045Z,1.4
2023-03-27T02:45:48.156Z,1.5
2023-03-27T02:46:57.777Z,1.5
2023-03-27T02:48:05.573Z,1.4
2023-03-27T02:49:15.217Z,1.3
2023-03-27T02:50:24.873Z,1.6
2023-03-27T02:51:33.522Z,1.5
2023-03-27T02:52:43.192Z,1.6
2023-03-27T02:53:50.878Z,1.7
2023-03-27T02:54:59.545Z,1.4
2023-03-27T02:56:09.195Z,1.4
2023-03-27T02:57:18.908Z,1.6
2023-03-27T02:58:28.513Z,1.4
2023-03-27T02:59:37.224Z,1.6
2023-03-27T03:00:45.944Z,1.8
2023-03-27T03:01:54.613Z,1.6
2023-03-27T03:03:03.284Z,1.5
2023-03-27T03:04:11.936Z,1.8
2023-03-27T03:05:21.590Z,1.5
2023-03-27T03:06:29.248Z,1.4
2023-03-27T03:07:38.945Z,1.7
2023-03-27T03:08:47.578Z,1.5
2023-03-27T03:09:56.279Z,1.5
2023-03-27T03:11:05.934Z,1.5
2023-03-27T03:12:14.616Z,1.5
2023-03-27T03:13:24.304Z,1.4
2023-03-27T03:14:33.954Z,1.6
2023-03-27T03:15:43.625Z,1.7
2023-03-27T03:16:53.365Z,1.6
2023-03-27T03:18:01.996Z,1.6
2023-03-27T03:19:09.613Z,1.4
2023-03-27T03:20:19.324Z,1.5
2023-03-27T03:21:27.987Z,2.1
2023-03-27T03:22:36.679Z,1.7
2023-03-27T03:23:58.340Z,1.9
2023-03-27T03:24:55.986Z,2
2023-03-27T03:26:05.637Z,2.1
2023-03-27T03:27:15.287Z,2
2023-03-27T03:28:22.934Z,2
2023-03-27T03:29:32.677Z,2.1
2023-03-27T03:30:42.295Z,2.1
2023-03-27T03:31:50.933Z,2.1
2023-03-27T03:33:00.607Z,2
2023-03-27T03:34:09.261Z,1.9
2023-03-27T03:35:18.907Z,1.9
2023-03-27T03:36:27.547Z,2
2023-03-27T03:37:34.190Z,1.6
2023-03-27T03:38:43.857Z,1
2023-03-27T03:39:51.603Z,2.2
2023-03-27T03:41:01.228Z,2.2
2023-03-27T03:42:10.879Z,0.7
2023-03-27T03:43:20.522Z,0.7
2023-03-27T03:44:30.219Z,0.8
2023-03-27T03:45:38.889Z,0.7
2023-03-27T03:46:47.543Z,0.7
2023-03-27T03:47:57.200Z,0.7
2023-03-27T03:49:05.840Z,2.3
2023-03-27T03:50:15.514Z,2.4
2023-03-27T03:51:25.167Z,0.8
2023-03-27T03:52:33.816Z,0.8
2023-03-27T03:53:43.511Z,1
2023-03-27T03:54:53.193Z,0.6
2023-03-27T03:56:01.841Z,0.8
2023-03-27T03:57:11.547Z,0.8
2023-03-27T03:58:20.192Z,0.6
2023-03-27T03:59:28.888Z,0.6
2023-03-27T04:00:38.534Z,0.6
2023-03-27T04:01:48.378Z,0.8
2023-03-27T04:02:57.973Z,0.5
2023-03-27T04:04:06.608Z,0.7
2023-03-27T04:05:16.323Z,0.7
2023-03-27T04:06:25.941Z,0.5
2023-03-27T04:07:34.635Z,0.6
2023-03-27T04:08:43.313Z,0.5
2023-03-27T04:09:53.019Z,0.5
2023-03-27T04:11:00.659Z,0.6
2023-03-27T04:12:09.312Z,0.5
2023-03-27T04:13:19.011Z,0.5
2023-03-27T04:14:26.687Z,0.6
2023-03-27T04:15:35.790Z,0.7
2023-03-27T04:16:45.472Z,0.7
2023-03-27T04:17:55.234Z,0.6
2023-03-27T04:19:03.826Z,0.6
2023-03-27T04:20:13.560Z,0.7
2023-03-27T04:21:21.213Z,0.6
2023-03-27T04:22:29.881Z,0.6
2023-03-27T04:23:39.555Z,0.8
2023-03-27T04:24:49.199Z,0.5
2023-03-27T04:25:58.949Z,0.6
2023-03-27T04:27:06.592Z,0.8
2023-03-27T04:28:16.370Z,0.5
2023-03-27T04:29:24.917Z,0.7
2023-03-27T04:30:33.626Z,0.6
2023-03-27T04:31:43.388Z,0.6
2023-03-27T04:32:52.975Z,0.7
2023-03-27T04:34:01.664Z,0.6
2023-03-27T04:35:11.299Z,0.7
2023-03-27T04:36:19.016Z,0.6
2023-03-27T04:37:28.606Z,0.6
2023-03-27T04:38:37.302Z,0.5
2023-03-27T04:39:44.911Z,0.6
2023-03-27T04:40:54.760Z,0.5
2023-03-27T04:42:04.289Z,0.6
2023-03-27T04:43:13.945Z,0.5
2023-03-27T04:44:23.587Z,0.6
2023-03-27T04:45:31.297Z,0.8
2023-03-27T04:46:40.962Z,0.6
2023-03-27T04:47:49.649Z,0.8
2023-03-27T04:48:58.246Z,0.7
2023-03-27T04:50:07.963Z,0.6
2023-03-27T04:51:17.649Z,0.5
2023-03-27T04:52:26.290Z,0.7
2023-03-27T04:53:35.958Z,0.6
2023-03-27T04:54:44.677Z,0.8
2023-03-27T04:55:54.342Z,0.7
2023-03-27T04:57:03.014Z,0.7
2023-03-27T04:58:10.655Z,0.8
2023-03-27T04:59:20.302Z,0.9
2023-03-27T05:00:27.955Z,1
2023-03-27T05:01:36.650Z,0.6
2023-03-27T05:02:46.283Z,0.7
2023-03-27T05:03:54.960Z,0.9
2023-03-27T05:05:04.605Z,0.7
2023-03-27T05:06:13.255Z,0.9
2023-03-27T05:07:20.877Z,0.7
2023-03-27T05:08:30.560Z,0.6
2023-03-27T05:09:38.203Z,0.6
2023-03-27T05:10:47.965Z,0.8
2023-03-27T05:11:57.618Z,0.9
2023-03-27T05:13:07.277Z,0.8
2023-03-27T05:14:16.941Z,0.8
2023-03-27T05:15:25.587Z,0.8
2023-03-27T05:16:33.290Z,0.7
2023-03-27T05:17:42.953Z,0.6
2023-03-27T05:18:50.598Z,0.8
2023-03-27T05:20:00.302Z,0.8
2023-03-27T05:21:09.955Z,0.8
2023-03-27T05:22:19.823Z,0.8
2023-03-27T05:23:29.322Z,0.6
2023-03-27T05:24:38.004Z,0.8
2023-03-27T05:25:59.600Z,0.8
2023-03-27T05:26:57.344Z,0.8
2023-03-27T05:28:04.996Z,0.5
2023-03-27T05:29:13.660Z,0.7
2023-03-27T05:30:22.335Z,0.6
2023-03-27T05:31:30.034Z,0.6
2023-03-27T05:32:39.695Z,0.6
2023-03-27T05:33:48.323Z,0.6
2023-03-27T05:34:55.975Z,0.6
2023-03-27T05:36:05.679Z,0.6
2023-03-27T05:37:14.343Z,0.6
2023-03-27T05:38:23.060Z,0.5
2023-03-27T05:39:32.735Z,0.7
2023-03-27T05:40:42.418Z,0.7
2023-03-27T05:41:52.160Z,0.6
2023-03-27T05:43:00.807Z,0.5
2023-03-27T05:44:08.481Z,0.5
2023-03-27T05:45:18.147Z,0.5
2023-03-27T05:46:27.263Z,0.5
2023-03-27T05:47:36.951Z,0.6
2023-03-27T05:48:46.558Z,0.4
2023-03-27T05:49:55.218Z,0.5
2023-03-27T05:51:04.880Z,0.5
2023-03-27T05:52:13.576Z,0.5
2023-03-27T05:53:27.917Z,0.5
2023-03-27T05:54:32.906Z,0.5
2023-03-27T05:55:41.601Z,0.4
2023-03-27T05:56:50.350Z,0.6
2023-03-27T05:57:59.989Z,0.4
2023-03-27T05:59:08.658Z,0.7
2023-03-27T06:00:18.318Z,0.4
2023-03-27T06:01:28.048Z,0.5
2023-03-27T06:02:35.765Z,0.5
2023-03-27T06:03:45.525Z,0.4
2023-03-27T06:04:54.074Z,0.6
2023-03-27T06:06:03.762Z,0.4
2023-03-27T06:07:13.471Z,0.5
2023-03-27T06:08:23.143Z,0.5
2023-03-27T06:09:32.808Z,0.5
2023-03-27T06:10:42.486Z,0.5
2023-03-27T06:11:52.185Z,0.4
2023-03-27T06:13:01.848Z,0.6
2023-03-27T06:14:11.526Z,0.5
2023-03-27T06:15:21.199Z,0.6
2023-03-27T06:16:31.082Z,0.6
2023-03-27T06:17:39.662Z,0.5
2023-03-27T06:18:48.368Z,0.6
2023-03-27T06:19:58.072Z,0.8
2023-03-27T06:21:06.732Z,0.7
2023-03-27T06:22:15.419Z,0.8
2023-03-27T06:23:25.077Z,0.7
2023-03-27T06:24:32.720Z,1.1
2023-03-27T06:25:42.415Z,0.7
2023-03-27T06:26:51.123Z,0.7
2023-03-27T06:27:59.758Z,0.8
2023-03-27T06:29:09.397Z,0.5
2023-03-27T06:30:17.093Z,0.7
2023-03-27T06:31:26.826Z,0.9
2023-03-27T06:32:36.504Z,0.6
2023-03-27T06:33:45.121Z,0.9
2023-03-27T06:34:54.782Z,0.9
2023-03-27T06:36:03.474Z,0.8
2023-03-27T06:37:12.111Z,0.9
2023-03-27T06:38:21.785Z,0.9
2023-03-27T06:39:29.447Z,1
2023-03-27T06:40:38.094Z,0.8
2023-03-27T06:41:47.818Z,0.8
2023-03-27T06:42:57.680Z,1
2023-03-27T06:44:07.370Z,0.7
2023-03-27T06:45:16.110Z,0.6
2023-03-27T06:46:29.796Z,0.4
2023-03-27T06:47:41.597Z,0.3
2023-03-27T06:48:45.149Z,0.4
2023-03-27T06:49:53.894Z,0.3
2023-03-27T06:51:03.602Z,0.4
2023-03-27T06:52:12.239Z,0.3
2023-03-27T06:53:27.056Z,0.6
2023-03-27T06:54:31.657Z,0.4
2023-03-27T06:55:40.361Z,0.4
2023-03-27T06:56:50.055Z,0.3
2023-03-27T06:57:59.723Z,0.3
2023-03-27T06:59:08.537Z,0.2
2023-03-27T07:00:18.126Z,0.3
2023-03-27T07:01:26.746Z,0.3
2023-03-27T07:02:36.459Z,0.2
2023-03-27T07:03:45.076Z,0.3
2023-03-27T07:05:04.147Z,0.2
2023-03-27T07:06:05.424Z,0.3
2023-03-27T07:07:14.062Z,0.2
2023-03-27T07:08:25.089Z,0.2
2023-03-27T07:09:33.405Z,0.2
2023-03-27T07:10:41.070Z,0.2
2023-03-27T07:11:50.765Z,0.2
2023-03-27T07:13:00.457Z,0.3
2023-03-27T07:14:09.124Z,0.3
2023-03-27T07:15:18.820Z,0.3
2023-03-27T07:16:28.473Z,0.3
2023-03-27T07:17:47.879Z,0.4
2023-03-27T07:18:47.777Z,0.5
2023-03-27T07:19:57.424Z,0.3
2023-03-27T07:21:06.075Z,0.5
2023-03-27T07:22:14.716Z,0.3
2023-03-27T07:23:22.421Z,0.3
2023-03-27T07:24:32.044Z,0.3
2023-03-27T07:25:39.797Z,0.3
2023-03-27T07:26:49.484Z,0.2
2023-03-27T07:27:59.190Z,0.2
2023-03-27T07:29:06.841Z,0.4
2023-03-27T07:30:16.544Z,0.4
2023-03-27T07:31:37.052Z,0.3
2023-03-27T07:32:37.849Z,0.3
2023-03-27T07:33:46.626Z,0.3
2023-03-27T07:34:55.188Z,0.5
2023-03-27T07:36:03.864Z,0.4
2023-03-27T07:37:13.518Z,0.3
2023-03-27T07:38:21.241Z,0.6
2023-03-27T07:39:31.788Z,0.3
2023-03-27T07:40:41.469Z,0.3
2023-03-27T07:41:50.087Z,0.4
2023-03-27T07:42:59.793Z,0.3
2023-03-27T07:44:08.450Z,0.3
2023-03-27T07:45:17.122Z,0.4
2023-03-27T07:46:26.796Z,0.4
2023-03-27T07:47:36.666Z,0.3
2023-03-27T07:48:45.308Z,0.3
2023-03-27T07:49:53.970Z,0.2
2023-03-27T07:51:13.169Z,0.4
2023-03-27T07:52:15.994Z,0.2
2023-03-27T07:53:33.145Z,0.3
2023-03-27T07:54:34.579Z,0.2
2023-03-27T07:55:43.232Z,0.2
2023-03-27T07:56:50.946Z,0.2
2023-03-27T07:58:02.691Z,0.3
2023-03-27T07:59:09.230Z,0.4
2023-03-27T08:00:19.010Z,0.3
2023-03-27T08:01:27.729Z,0.2
2023-03-27T08:02:36.420Z,0.3
2023-03-27T08:03:46.128Z,0.4
2023-03-27T08:04:55.907Z,0.4
2023-03-27T08:06:05.490Z,0.3
2023-03-27T08:07:15.227Z,0.2
2023-03-27T08:08:24.903Z,0.3
2023-03-27T08:09:33.553Z,0.5
2023-03-27T08:10:43.227Z,0.3
2023-03-27T08:11:52.876Z,0.4
2023-03-27T08:13:02.555Z,0.4
2023-03-27T08:14:12.303Z,0.5
2023-03-27T08:15:19.947Z,0.4
2023-03-27T08:16:28.641Z,0.5
2023-03-27T08:17:38.369Z,0.6
2023-03-27T08:18:46.979Z,0.3
2023-03-27T08:19:55.699Z,0.4
2023-03-27T08:21:05.361Z,0.6
2023-03-27T08:22:14.017Z,0.5
2023-03-27T08:23:23.791Z,0.5
2023-03-27T08:24:33.481Z,0.4
2023-03-27T08:25:42.164Z,0.2
2023-03-27T08:26:51.959Z,0.3
2023-03-27T08:27:59.656Z,0.4
2023-03-27T08:29:08.358Z,0.3
2023-03-27T08:30:18.112Z,0.5
2023-03-27T08:31:25.961Z,0.4
2023-03-27T08:32:35.445Z,0.5
2023-03-27T08:33:44.130Z,0.3
2023-03-27T08:34:51.868Z,0.4
2023-03-27T08:36:00.597Z,0.3
2023-03-27T08:37:09.327Z,0.4
2023-03-27T08:38:25.932Z,0.3
2023-03-27T08:39:28.701Z,0.5
2023-03-27T08:40:36.388Z,0.8
2023-03-27T08:41:46.099Z,0.9
2023-03-27T08:42:54.846Z,1
2023-03-27T08:44:03.813Z,0.9
2023-03-27T08:45:13.503Z,0.8
2023-03-27T08:46:21.236Z,0.9
2023-03-27T08:47:29.882Z,0.9
2023-03-27T08:48:39.503Z,0.8
2023-03-27T08:49:48.182Z,1
2023-03-27T08:50:57.836Z,0.8
2023-03-27T08:52:06.527Z,1.1
2023-03-27T08:53:14.179Z,0.8
2023-03-27T08:54:23.870Z,0.8
2023-03-27T08:55:31.528Z,0.9
2023-03-27T08:56:40.230Z,0.8
2023-03-27T08:57:50.051Z,0.9
2023-03-27T08:58:58.721Z,1
2023-03-27T09:00:08.402Z,0.8
2023-03-27T09:01:18.051Z,1
2023-03-27T09:02:26.740Z,1
2023-03-27T09:03:36.492Z,0.6
2023-03-27T09:04:46.073Z,0.8
2023-03-27T09:05:55.946Z,0.4
2023-03-27T09:07:05.389Z,0.5
2023-03-27T09:08:14.061Z,0.3
2023-03-27T09:09:22.715Z,0.3
2023-03-27T09:10:31.546Z,0.4
2023-03-27T09:11:40.208Z,0.3
2023-03-27T09:12:49.862Z,0.3
2023-03-27T09:13:58.586Z,0.3
2023-03-27T09:15:07.302Z,0.5
2023-03-27T09:16:16.971Z,0.6
2023-03-27T09:17:24.638Z,0.5
2023-03-27T09:18:34.339Z,0.6
2023-03-27T09:19:43.005Z,0.4
2023-03-27T09:20:50.662Z,0.4
2023-03-27T09:22:00.378Z,0.5
2023-03-27T09:23:09.055Z,0.6
2023-03-27T09:24:18.755Z,0.4
2023-03-27T09:25:28.421Z,0.5
2023-03-27T09:26:35.073Z,0.4
2023-03-27T09:27:45.738Z,0.4
2023-03-27T09:28:55.366Z,0.4
2023-03-27T09:30:06.209Z,0.5
2023-03-27T09:31:15.907Z,0.3
2023-03-27T09:32:24.499Z,0.6
2023-03-27T09:33:33.200Z,0.4
2023-03-27T09:34:42.875Z,0.4
2023-03-27T09:35:51.563Z,0.8
2023-03-27T09:37:01.247Z,0.5
2023-03-27T09:38:11.902Z,0.7
2023-03-27T09:39:20.592Z,0.7
2023-03-27T09:40:29.236Z,0.4
2023-03-27T09:41:37.900Z,0.9
2023-03-27T09:42:47.643Z,0.5
2023-03-27T09:43:57.358Z,0.8
2023-03-27T09:45:07.653Z,0.7
2023-03-27T09:46:17.345Z,0.3
2023-03-27T09:47:26.984Z,0.7
2023-03-27T09:48:34.616Z,0.8
2023-03-27T09:49:44.327Z,0.7
2023-03-27T09:50:53.017Z,0.5
2023-03-27T09:52:02.683Z,0.5
2023-03-27T09:53:12.358Z,0.6
2023-03-27T09:54:21.081Z,0.8
2023-03-27T09:55:30.789Z,0.8
2023-03-27T09:56:39.469Z,0.7
2023-03-27T09:57:49.108Z,0.4
2023-03-27T09:58:58.755Z,0.7
2023-03-27T10:00:05.774Z,0.5
2023-03-27T10:01:14.533Z,0.6
2023-03-27T10:02:24.165Z,0.6
2023-03-27T10:03:33.765Z,0.6
2023-03-27T10:04:43.450Z,0.7
2023-03-27T10:05:52.105Z,0.6
2023-03-27T10:06:59.762Z,0.8
2023-03-27T10:08:08.433Z,1.3
2023-03-27T10:09:18.082Z,1
2023-03-27T10:10:26.767Z,0.9
2023-03-27T10:11:36.525Z,1.3
2023-03-27T10:12:46.244Z,1.1
2023-03-27T10:13:54.926Z,0.8
2023-03-27T10:15:04.600Z,1.1
2023-03-27T10:16:13.275Z,1.1
2023-03-27T10:17:22.914Z,1
2023-03-27T10:18:31.612Z,1.3
2023-03-27T10:19:40.334Z,1.1
2023-03-27T10:20:50.038Z,1.3
2023-03-27T10:21:58.681Z,1.1
2023-03-27T10:23:07.372Z,1.1
2023-03-27T10:24:17.024Z,0.9
2023-03-27T10:25:24.684Z,0.6
2023-03-27T10:26:33.399Z,1.2
2023-03-27T10:27:43.079Z,0.9
2023-03-27T10:28:50.714Z,1.3
2023-03-27T10:29:59.402Z,0.8
2023-03-27T10:31:08.736Z,1.2
2023-03-27T10:32:18.415Z,1.8
2023-03-27T10:33:28.065Z,2.3
2023-03-27T10:34:37.716Z,2.6
2023-03-27T10:35:47.443Z,2.5
2023-03-27T10:36:57.094Z,3
2023-03-27T10:38:04.801Z,2.7
2023-03-27T10:39:14.507Z,2
2023-03-27T10:40:24.205Z,2.1
2023-03-27T10:41:32.902Z,1.9
2023-03-27T10:42:42.583Z,2.3
2023-03-27T10:43:51.261Z,2
2023-03-27T10:44:59.905Z,2.5
2023-03-27T10:46:08.614Z,2.5
2023-03-27T10:47:17.270Z,2.4
2023-03-27T10:48:26.928Z,2.7
2023-03-27T10:49:36.701Z,2
2023-03-27T10:50:44.435Z,2.4
2023-03-27T10:51:54.103Z,2.1
2023-03-27T10:53:02.773Z,2
2023-03-27T10:54:11.444Z,2.2
2023-03-27T10:55:21.053Z,2.4
2023-03-27T10:56:29.745Z,2.2
2023-03-27T10:57:39.468Z,2.4
2023-03-27T10:58:49.161Z,1.8
2023-03-27T10:59:59.927Z,2.2
2023-03-27T11:01:09.606Z,1.9
2023-03-27T11:02:19.264Z,1.5
2023-03-27T11:03:27.967Z,1.9
2023-03-27T11:04:37.599Z,1.8
2023-03-27T11:05:47.407Z,1.8
2023-03-27T11:06:57.076Z,1.4
2023-03-27T11:08:05.744Z,1.6
2023-03-27T11:09:13.410Z,1.5
2023-03-27T11:10:23.064Z,1.1
2023-03-27T11:11:30.742Z,1.2
2023-03-27T11:12:40.397Z,0.8
2023-03-27T11:13:50.068Z,0.9
2023-03-27T11:14:58.733Z,1.1
2023-03-27T11:16:08.528Z,0.7
2023-03-27T11:17:16.203Z,1.9
2023-03-27T11:18:24.885Z,0.8
2023-03-27T11:19:34.572Z,1.6
2023-03-27T11:20:42.235Z,1.5
2023-03-27T11:21:50.921Z,1.8
2023-03-27T11:23:00.574Z,1.7
2023-03-27T11:24:08.233Z,2
2023-03-27T11:25:16.933Z,1.7
2023-03-27T11:26:26.607Z,1.7
2023-03-27T11:27:36.273Z,1.5
2023-03-27T11:28:45.968Z,1.5
2023-03-27T11:29:53.617Z,1.2
2023-03-27T11:31:11.950Z,1.6
2023-03-27T11:32:12.989Z,1.3
2023-03-27T11:33:20.626Z,1.5
2023-03-27T11:34:30.281Z,1.7
2023-03-27T11:35:39.960Z,1.5
2023-03-27T11:36:48.625Z,1.7
2023-03-27T11:37:58.403Z,1
2023-03-27T11:39:07.056Z,1.4
2023-03-27T11:40:15.743Z,0.6
2023-03-27T11:41:25.451Z,1.2
2023-03-27T11:42:33.160Z,1
2023-03-27T11:43:42.813Z,0.6
2023-03-27T11:44:52.483Z,0.6
2023-03-27T11:46:00.229Z,0.7
2023-03-27T11:47:09.840Z,1
2023-03-27T11:48:19.591Z,1.5
2023-03-27T11:49:28.168Z,1.4
2023-03-27T11:50:37.817Z,1.1
2023-03-27T11:51:45.522Z,0.9
2023-03-27T11:52:55.210Z,0.8
2023-03-27T11:54:03.844Z,0.8
2023-03-27T11:55:11.502Z,1.5
2023-03-27T11:56:21.171Z,0.9
2023-03-27T11:57:29.822Z,0.9
2023-03-27T11:58:39.538Z,1.5
2023-03-27T11:59:49.204Z,1.1
2023-03-27T12:00:57.000Z,0.6
2023-03-27T12:02:06.591Z,0.9
2023-03-27T12:03:16.269Z,0.7
2023-03-27T12:04:24.953Z,2.7
2023-03-27T12:05:33.574Z,0.7
2023-03-27T12:06:42.297Z,0.7
2023-03-27T12:07:51.975Z,1.4
2023-03-27T12:09:01.622Z,1.6
2023-03-27T12:10:11.301Z,1
2023-03-27T12:11:20.964Z,1.6
2023-03-27T12:12:30.665Z,1.4
2023-03-27T12:13:42.185Z,1.8
2023-03-27T12:14:50.968Z,1.4
2023-03-27T12:16:00.677Z,0.6
2023-03-27T12:17:09.338Z,0.6
2023-03-27T12:18:18.986Z,0.6
2023-03-27T12:19:31.159Z,2.1
2023-03-27T12:20:41.653Z,1.4
2023-03-27T12:21:48.984Z,0.6
2023-03-27T12:22:57.644Z,0.7
2023-03-27T12:24:06.333Z,0.9
2023-03-27T12:25:16.022Z,0.7
2023-03-27T12:26:23.702Z,0.8
2023-03-27T12:27:33.371Z,0.6
2023-03-27T12:28:42.028Z,0.7
2023-03-27T12:29:49.696Z,0.9
2023-03-27T12:30:59.365Z,1.1
2023-03-27T12:32:08.169Z,0.9
2023-03-27T12:33:17.754Z,0.6
2023-03-27T12:34:27.410Z,0.7
2023-03-27T12:35:36.139Z,0.8
2023-03-27T12:36:45.752Z,0.6
2023-03-27T12:37:55.456Z,0.5
2023-03-27T12:39:04.156Z,0.6
2023-03-27T12:40:13.811Z,0.5
2023-03-27T12:41:22.535Z,0.5
2023-03-27T12:42:32.239Z,0.6
2023-03-27T12:43:42.907Z,0.9
2023-03-27T12:44:50.561Z,1
2023-03-27T12:46:00.237Z,0.5
2023-03-27T12:47:09.871Z,0.6
2023-03-27T12:48:17.647Z,0.6
2023-03-27T12:49:34.327Z,1
2023-03-27T12:50:36.993Z,1.1
2023-03-27T12:51:45.683Z,0.9
2023-03-27T12:52:55.345Z,0.9
2023-03-27T12:54:03.095Z,0.5
2023-03-27T12:55:11.788Z,0.7
2023-03-27T12:56:21.436Z,0.5
2023-03-27T12:57:30.241Z,0.6
2023-03-27T12:58:39.822Z,0.4
2023-03-27T12:59:49.479Z,0.6
2023-03-27T13:00:58.259Z,0.7
2023-03-27T13:02:07.890Z,1.1
2023-03-27T13:03:16.626Z,1.1
2023-03-27T13:04:25.325Z,0.8
2023-03-27T13:05:35.055Z,0.8
2023-03-27T13:06:44.725Z,0.8
2023-03-27T13:07:54.688Z,1.1
2023-03-27T13:09:03.199Z,1.3
2023-03-27T13:10:11.901Z,1
2023-03-27T13:11:21.568Z,1.1
2023-03-27T13:12:30.291Z,1.5
2023-03-27T13:13:40.030Z,1
2023-03-27T13:14:49.688Z,0.8
2023-03-27T13:15:58.587Z,0.7
2023-03-27T13:17:07.035Z,0.7
2023-03-27T13:18:15.752Z,0.9
2023-03-27T13:19:24.409Z,0.7
2023-03-27T13:20:34.064Z,1
2023-03-27T13:21:42.710Z,0.7
2023-03-27T13:22:51.391Z,0.6
2023-03-27T13:24:01.078Z,0.6
2023-03-27T13:25:09.711Z,0.7
2023-03-27T13:26:19.439Z,0.8
2023-03-27T13:27:27.095Z,1.3
2023-03-27T13:28:34.782Z,0.9
2023-03-27T13:29:44.460Z,0.8
2023-03-27T13:30:53.159Z,1
2023-03-27T13:32:02.831Z,1.1
2023-03-27T13:33:12.623Z,1
2023-03-27T13:34:20.285Z,1
2023-03-27T13:35:30.003Z,1.2
2023-03-27T13:36:38.759Z,1.4
2023-03-27T13:37:47.442Z,1.3
2023-03-27T13:38:57.088Z,1.2
2023-03-27T13:40:05.768Z,1.4
2023-03-27T13:41:14.413Z,1.3
2023-03-27T13:42:24.192Z,1.5
2023-03-27T13:43:33.779Z,1.4
2023-03-27T13:44:43.446Z,1.5
2023-03-27T13:45:53.132Z,1
2023-03-27T13:47:01.784Z,0.8
2023-03-27T13:48:11.450Z,1
2023-03-27T13:49:21.172Z,0.9
2023-03-27T13:50:29.843Z,0.8
2023-03-27T13:51:39.533Z,0.9
2023-03-27T13:52:48.204Z,0.8
2023-03-27T13:53:57.946Z,0.8
2023-03-27T13:55:07.614Z,1
2023-03-27T13:56:16.388Z,0.8
2023-03-27T13:57:26.002Z,0.6
2023-03-27T13:58:34.683Z,0.6
2023-03-27T13:59:43.810Z,0.7
2023-03-27T14:00:53.485Z,0.8
2023-03-27T14:02:03.246Z,0.8
2023-03-27T14:03:12.912Z,0.6
2023-03-27T14:04:21.545Z,0.7
2023-03-27T14:05:29.216Z,0.8
2023-03-27T14:06:37.888Z,1
2023-03-27T14:07:47.532Z,1.3
2023-03-27T14:08:55.204Z,1.3
2023-03-27T14:10:04.895Z,0.9
2023-03-27T14:11:14.575Z,0.7
2023-03-27T14:12:23.299Z,0.4
2023-03-27T14:13:33.145Z,0.5
2023-03-27T14:14:41.812Z,0.4
2023-03-27T14:15:50.537Z,0.5
2023-03-27T14:17:00.178Z,0.7
2023-03-27T14:18:08.863Z,0.8
2023-03-27T14:19:18.531Z,0.7
2023-03-27T14:20:27.243Z,0.5
2023-03-27T14:21:38.982Z,0.4
2023-03-27T14:22:47.550Z,0.4
2023-03-27T14:23:56.209Z,1
2023-03-27T14:25:04.948Z,0.4
2023-03-27T14:26:14.603Z,0.6
2023-03-27T14:27:24.337Z,0.4
2023-03-27T14:28:34.020Z,0.5
2023-03-27T14:29:42.674Z,0.4
2023-03-27T14:30:52.332Z,0.5
2023-03-27T14:32:02.032Z,0.4
2023-03-27T14:33:10.669Z,0.5
2023-03-27T14:34:20.390Z,0.5
2023-03-27T14:35:30.091Z,0.4
2023-03-27T14:36:39.180Z,0.9
2023-03-27T14:37:48.386Z,1
2023-03-27T14:38:58.045Z,1.4
2023-03-27T14:40:06.760Z,1.6
2023-03-27T14:41:16.409Z,0.7
2023-03-27T14:42:28.295Z,0.6
2023-03-27T14:43:35.724Z,0.5
2023-03-27T14:44:45.450Z,0.7
2023-03-27T14:45:55.320Z,0.9
2023-03-27T14:47:04.821Z,0.7
2023-03-27T14:48:13.478Z,0.8
2023-03-27T14:49:24.489Z,0.8
2023-03-27T14:50:32.788Z,0.6
2023-03-27T14:51:41.444Z,0.8
2023-03-27T14:52:51.102Z,1.1
2023-03-27T14:54:00.763Z,1.6
2023-03-27T14:55:09.459Z,2
2023-03-27T14:56:19.117Z,2.6
2023-03-27T14:57:28.788Z,2
2023-03-27T14:58:36.451Z,2.6
2023-03-27T14:59:46.105Z,2.5
2023-03-27T15:00:54.979Z,2.5
2023-03-27T15:02:03.634Z,2.3
2023-03-27T15:03:13.331Z,2.7
2023-03-27T15:04:21.939Z,3
2023-03-27T15:05:31.625Z,2
2023-03-27T15:06:40.302Z,1.9
2023-03-27T15:07:49.978Z,2
2023-03-27T15:08:59.728Z,1.5
2023-03-27T15:10:09.494Z,1.7
2023-03-27T15:11:19.172Z,1.6
2023-03-27T15:12:29.809Z,2.3
2023-03-27T15:13:37.485Z,2.3
2023-03-27T15:14:47.168Z,2.8
2023-03-27T15:15:56.986Z,3.3
2023-03-27T15:17:05.560Z,2.8
2023-03-27T15:18:15.173Z,2.6
2023-03-27T15:19:24.856Z,2.4
2023-03-27T15:20:33.534Z,1.9
2023-03-27T15:21:43.191Z,1.9
2023-03-27T15:22:51.848Z,2.2
2023-03-27T15:24:01.581Z,1.8
2023-03-27T15:25:10.230Z,2.7
2023-03-27T15:26:18.917Z,1.9
2023-03-27T15:27:28.566Z,2.4
2023-03-27T15:28:37.244Z,2.6
2023-03-27T15:29:45.933Z,1.9
2023-03-27T15:30:55.647Z,1.7
2023-03-27T15:32:05.318Z,1.6
2023-03-27T15:33:13.950Z,2
2023-03-27T15:34:23.610Z,2.1
2023-03-27T15:35:31.389Z,3.1
2023-03-27T15:36:40.998Z,3
2023-03-27T15:37:49.680Z,2.4
2023-03-27T15:38:58.349Z,2.7
2023-03-27T15:40:08.011Z,2.7
2023-03-27T15:41:17.891Z,3.3
2023-03-27T15:42:27.919Z,3.3
2023-03-27T15:43:35.684Z,3.1
2023-03-27T15:44:43.346Z,2.3
2023-03-27T15:45:53.245Z,2.6
2023-03-27T15:47:03.060Z,2.3
2023-03-27T15:48:11.705Z,2.6
2023-03-27T15:49:21.478Z,2.9
2023-03-27T15:50:29.252Z,2.5
2023-03-27T15:51:38.995Z,2.7
2023-03-27T15:52:48.680Z,2.6
2023-03-27T15:53:57.419Z,3.1
2023-03-27T15:55:07.115Z,3.2
2023-03-27T15:56:14.823Z,3